Time;durP1;ratioP1;P1;durP2;ratioP2;P2;SDS_P1;SDS_P2;PMS_P1;PMS_P2;Temp;Humidity;BMP_temperature;BMP_pressure;BME280_temperature;BME280_humidity;BME280_pressure;Samples;Min_cycle;Max_cycle;Signal;HPM_P1;HPM_P2
2022/09/06 00:00:36;;;;;;;;;;;;;;;26.34;76.75;98975.00;5072494;28;19916;-40
2022/09/06 00:03:02;;;;;;;;;;;;;;;26.79;76.34;98986.50;5071617;28;20703;-40
2022/09/06 00:05:28;;;;;;;;;;;;;;;26.90;76.02;98980.97;5053761;28;20442;-40
2022/09/06 00:07:53;;;;;;;;;;;;;;;27.05;75.00;98983.88;5071998;28;19951;-40
2022/09/06 00:10:18;;;;;;;;;;;;;;;27.04;75.80;98983.06;5070718;28;20057;-40
2022/09/06 00:12:44;;;;;;;;;;;;;;;27.10;75.89;98981.63;5054823;28;19923;-40
2022/09/06 00:15:09;;;;;;;;;;;;;;;26.92;76.24;98977.19;5072110;28;19912;-40
2022/09/06 00:17:34;;;;;;;;;;;;;;;27.83;71.65;98967.94;5070781;28;19924;-40
2022/09/06 00:20:00;;;;;;;;;;;;;;;27.04;76.36;98983.06;5073278;28;19916;-40
2022/09/06 00:22:25;;;;;;;;;;;;;;;26.64;78.14;98980.91;5074554;28;20014;-40
2022/09/06 00:24:50;;;;;;;;;;;;;;;26.56;77.62;98973.75;5075908;28;20384;-40
2022/09/06 00:27:15;;;;;;;;;;;;;;;26.70;78.70;98980.31;5074588;28;20481;-39
2022/09/06 00:29:41;;;;;;;;;;;;;;;26.61;78.24;98976.78;5075206;28;19982;-40
2022/09/06 00:32:07;;;;;;;;;;;;;;;26.59;78.83;98973.44;5074206;28;19927;-40
2022/09/06 00:34:32;;;;;;;;;;;;;;;27.34;76.29;98975.66;5074864;28;19920;-40
2022/09/06 00:36:57;;;;;;;;;;;;;;;26.88;75.56;98972.38;5075695;28;19924;-40
2022/09/06 00:39:23;;;;;;;;;;;;;;;27.15;77.06;98967.94;5074978;28;19920;-40
2022/09/06 00:41:48;;;;;;;;;;;;;;;27.40;73.15;98961.81;5073654;28;20795;-40
2022/09/06 00:44:14;;;;;;;;;;;;;;;27.10;76.79;98966.56;5073859;28;19980;-40
2022/09/06 00:46:40;;;;;;;;;;;;;;;26.84;76.84;98965.72;5074595;28;19916;-40
2022/09/06 00:49:06;;;;;;;;;;;;;;;27.19;75.87;98958.72;5075028;28;19920;-40
2022/09/06 00:51:32;;;;;;;;;;;;;;;27.35;72.82;98953.53;5075367;28;19916;-40
2022/09/06 00:53:58;;;;;;;;;;;;;;;27.18;74.62;98957.84;5053662;28;19919;-40
2022/09/06 00:56:23;;;;;;;;;;;;;;;26.60;76.84;98954.00;5055625;28;19959;-40
2022/09/06 00:58:48;;;;;;;;;;;;;;;26.85;76.76;98954.19;5056936;28;19915;-39
2022/09/06 01:01:13;;;;;;;;;;;;;;;26.43;78.87;98944.22;5056717;28;20724;-40
2022/09/06 01:03:39;;;;;;;;;;;;;;;27.52;73.29;98947.31;5073292;28;20368;-39
2022/09/06 01:06:10;;;;;;;;;;;;;;;27.02;75.99;98942.72;5055828;28;19926;-40
2022/09/06 01:08:49;;;;;;;;;;;;;;;26.92;77.00;98934.09;5072667;28;20026;-40
2022/09/06 01:11:15;;;;;;;;;;;;;;;27.24;75.20;98936.13;5055048;28;19920;-39
2022/09/06 01:13:46;;;;;;;;;;;;;;;27.18;74.08;98931.41;5073236;28;19955;-40
2022/09/06 01:16:20;;;;;;;;;;;;;;;26.82;76.42;98933.34;5074426;28;19949;-39
2022/09/06 01:19:04;;;;;;;;;;;;;;;27.22;74.53;98927.50;5073064;28;20068;-40
2022/09/06 01:21:40;;;;;;;;;;;;;;;26.41;77.75;98933.00;5073465;28;19920;-39
2022/09/06 01:24:12;;;;;;;;;;;;;;;26.68;76.50;98930.28;5055324;28;19965;-39
2022/09/06 01:26:52;;;;;;;;;;;;;;;26.09;79.06;98929.06;5074079;28;20010;-39
2022/09/06 01:29:36;;;;;;;;;;;;;;;26.93;76.49;98927.81;5053883;28;20030;-39
2022/09/06 01:32:22;;;;;;;;;;;;;;;26.43;77.71;98928.38;5074137;28;20380;-40
2022/09/06 01:34:49;;;;;;;;;;;;;;;26.56;78.63;98925.41;5073265;28;19916;-40
2022/09/06 01:37:15;;;;;;;;;;;;;;;26.06;79.27;98932.03;5054896;28;20379;-39
2022/09/06 01:39:41;;;;;;;;;;;;;;;26.61;78.41;98929.22;5041779;28;19920;-40
2022/09/06 01:42:11;;;;;;;;;;;;;;;26.62;77.36;98919.53;5072401;28;19920;-40
2022/09/06 01:44:36;;;;;;;;;;;;;;;26.29;79.38;98920.03;5055215;28;20336;-40
2022/09/06 01:47:08;;;;;;;;;;;;;;;26.22;79.37;98913.69;5054162;28;19970;-39
2022/09/06 01:49:40;;;;;;;;;;;;;;;26.25;80.43;98918.69;5055756;28;19923;-39
2022/09/06 01:52:37;;;;;;;;;;;;;;;26.97;75.26;98917.75;5071933;28;19978;-39
2022/09/06 01:55:21;;;;;;;;;;;;;;;26.39;78.21;98913.81;5027989;28;20253;-39
2022/09/06 01:57:49;;;;;;;;;;;;;;;26.51;77.67;98920.56;5053271;28;20034;-40
2022/09/06 02:00:15;;;;;;;;;;;;;;;26.64;76.43;98918.38;5073514;28;19920;-40
2022/09/06 02:02:44;;;;;;;;;;;;;;;26.13;79.18;98916.41;5044174;28;20246;-40
2022/09/06 02:05:13;;;;;;;;;;;;;;;26.45;77.94;98908.78;5072692;28;20635;-39
2022/09/06 02:07:38;;;;;;;;;;;;;;;27.07;74.09;98910.53;5053767;28;19924;-39
2022/09/06 02:10:06;;;;;;;;;;;;;;;27.23;72.20;98917.75;5072419;28;19965;-39
2022/09/06 02:12:32;;;;;;;;;;;;;;;27.25;71.74;98923.72;5072971;28;19932;-39
2022/09/06 02:14:59;;;;;;;;;;;;;;;27.47;71.33;98920.53;5053938;28;20260;-40
2022/09/06 02:17:25;;;;;;;;;;;;;;;28.05;68.44;98923.34;5071726;28;19924;-39
2022/09/06 02:19:55;;;;;;;;;;;;;;;27.61;69.85;98927.00;5055428;28;19930;-40
2022/09/06 02:22:21;;;;;;;;;;;;;;;27.77;69.50;98925.41;5071408;28;19920;-40
2022/09/06 02:24:46;;;;;;;;;;;;;;;28.73;64.21;98928.38;5054955;28;20816;-39
2022/09/06 02:27:13;;;;;;;;;;;;;;;29.35;60.60;98942.84;5054200;28;19920;-39
2022/09/06 02:29:38;;;;;;;;;;;;;;;27.39;72.70;99002.47;5071553;28;19924;-39
2022/09/06 02:32:10;;;;;;;;;;;;;;;27.48;74.05;99005.97;5054190;28;19919;-39
2022/09/06 02:34:36;;;;;;;;;;;;;;;27.91;70.03;98986.50;5054374;28;20016;-39
2022/09/06 02:37:01;;;;;;;;;;;;;;;28.00;66.44;99008.56;5071895;28;20023;-39
2022/09/06 02:39:26;;;;;;;;;;;;;;;28.24;66.69;99001.69;5052273;28;20511;-39
2022/09/06 02:41:52;;;;;;;;;;;;;;;28.29;66.17;99008.13;5073049;28;19992;-40
2022/09/06 02:44:17;;;;;;;;;;;;;;;28.31;65.18;99003.50;5051279;28;19916;-39
2022/09/06 02:46:42;;;;;;;;;;;;;;;28.59;62.01;98995.28;5070044;28;19920;-39
2022/09/06 02:49:07;;;;;;;;;;;;;;;28.95;60.75;99003.75;5071459;28;19924;-40
2022/09/06 02:51:37;;;;;;;;;;;;;;;29.03;59.58;98997.59;5072434;28;19957;-40
2022/09/06 02:54:02;;;;;;;;;;;;;;;29.31;57.75;98990.13;5072290;28;19922;-39
2022/09/06 02:56:27;;;;;;;;;;;;;;;29.11;58.57;98984.34;5069659;28;19923;-40
2022/09/06 02:58:52;;;;;;;;;;;;;;;29.09;57.21;98981.03;5072153;28;19939;-39
2022/09/06 03:01:18;;;;;;;;;;;;;;;28.98;57.62;98981.34;5071887;28;19924;-40
2022/09/06 03:03:43;;;;;;;;;;;;;;;29.16;55.93;98975.91;5071405;28;20004;-40
2022/09/06 03:06:08;;;;;;;;;;;;;;;29.38;54.82;98961.91;5070853;28;19924;-40
2022/09/06 03:08:35;;;;;;;;;;;;;;;29.35;55.43;98964.06;5071383;28;19983;-39
2022/09/06 03:11:00;;;;;;;;;;;;;;;29.12;55.41;98961.31;5072673;28;20388;-40
2022/09/06 03:13:26;;;;;;;;;;;;;;;28.95;54.91;98957.84;5069890;28;19916;-39
2022/09/06 03:15:52;;;;;;;;;;;;;;;29.28;54.24;98955.97;5071060;28;19924;-40
2022/09/06 03:18:17;;;;;;;;;;;;;;;29.46;54.10;98953.09;5070943;28;20284;-40
2022/09/06 03:20:42;;;;;;;;;;;;;;;29.45;53.68;98942.66;5070463;28;19920;-40
2022/09/06 03:23:08;;;;;;;;;;;;;;;29.30;53.83;98940.72;5054022;28;19924;-40
2022/09/06 03:25:33;;;;;;;;;;;;;;;29.49;53.62;98928.88;5071705;28;19920;-39
2022/09/06 03:27:58;;;;;;;;;;;;;;;29.42;53.33;98935.03;5070436;28;20556;-39
2022/09/06 03:30:24;;;;;;;;;;;;;;;29.33;54.36;98931.56;5071797;28;20006;-39
2022/09/06 03:32:49;;;;;;;;;;;;;;;29.03;55.79;98936.59;5071582;28;20011;-39
2022/09/06 03:35:14;;;;;;;;;;;;;;;29.22;55.45;98931.94;5071755;28;20514;-39
2022/09/06 03:37:39;;;;;;;;;;;;;;;29.22;56.21;98931.94;5070110;28;19970;-39
2022/09/06 03:40:05;;;;;;;;;;;;;;;29.23;55.24;98933.63;5070022;28;19920;-39
2022/09/06 03:42:30;;;;;;;;;;;;;;;29.26;55.98;98933.25;5069218;28;20604;-39
2022/09/06 03:44:55;;;;;;;;;;;;;;;29.23;56.90;98938.91;5068237;28;19916;-39
2022/09/06 03:47:21;;;;;;;;;;;;;;;29.10;57.28;98937.63;5070497;28;19985;-39
2022/09/06 03:49:46;;;;;;;;;;;;;;;28.50;60.22;98948.59;5053783;28;19923;-39
2022/09/06 03:52:11;;;;;;;;;;;;;;;28.33;64.31;98953.03;5072179;28;19916;-39
2022/09/06 03:54:37;;;;;;;;;;;;;;;28.67;61.54;98950.25;5072232;28;19920;-39
2022/09/06 03:57:02;;;;;;;;;;;;;;;28.76;62.79;98946.59;5076939;28;20393;-39
2022/09/06 03:59:27;;;;;;;;;;;;;;;29.06;60.07;98943.38;5058684;28;19925;-40
2022/09/06 04:01:52;;;;;;;;;;;;;;;28.85;58.40;98941.28;5075551;28;19916;-39
2022/09/06 04:04:18;;;;;;;;;;;;;;;28.95;58.32;98934.81;5076671;28;19938;-39
2022/09/06 04:06:43;;;;;;;;;;;;;;;28.98;56.42;98941.59;5076435;28;20920;-39
2022/09/06 04:09:08;;;;;;;;;;;;;;;28.95;59.26;98948.06;5076839;28;20384;-39
2022/09/06 04:11:33;;;;;;;;;;;;;;;29.09;57.71;98943.09;5075133;28;21108;-40
2022/09/06 04:13:58;;;;;;;;;;;;;;;29.06;57.83;98941.59;5072753;28;19920;-40
2022/09/06 04:16:24;;;;;;;;;;;;;;;28.97;56.48;98945.25;5075418;28;19928;-39
2022/09/06 04:18:49;;;;;;;;;;;;;;;28.91;57.12;98948.56;5074374;28;19916;-39
2022/09/06 04:21:14;;;;;;;;;;;;;;;28.94;56.88;98945.56;5074625;28;19928;-39
2022/09/06 04:23:39;;;;;;;;;;;;;;;28.68;57.92;98941.31;5072165;28;20473;-40
2022/09/06 04:26:05;;;;;;;;;;;;;;;28.89;56.99;98940.78;5074464;28;19916;-39
2022/09/06 04:28:30;;;;;;;;;;;;;;;29.03;57.88;98954.34;5074832;28;19963;-39
2022/09/06 04:30:59;;;;;;;;;;;;;;;28.94;57.66;98951.72;5074665;28;19942;-39
2022/09/06 04:33:25;;;;;;;;;;;;;;;28.81;58.31;98955.84;5075968;28;19916;-39
2022/09/06 04:35:55;;;;;;;;;;;;;;;28.48;59.08;98966.47;5074708;28;19961;-39
2022/09/06 04:38:21;;;;;;;;;;;;;;;28.88;58.29;98962.16;5074925;28;20398;-39
2022/09/06 04:40:47;;;;;;;;;;;;;;;28.95;57.90;98957.84;5073994;28;19999;-39
2022/09/06 04:43:12;;;;;;;;;;;;;;;28.96;57.80;98960.31;5075742;28;19923;-39
2022/09/06 04:45:37;;;;;;;;;;;;;;;28.93;57.81;98959.84;5075809;28;19950;-39
2022/09/06 04:48:02;;;;;;;;;;;;;;;28.92;57.82;98959.00;5076125;28;20288;-39
2022/09/06 04:50:28;;;;;;;;;;;;;;;28.93;58.42;98962.50;5074963;28;19924;-39
2022/09/06 04:52:53;;;;;;;;;;;;;;;28.96;58.00;98960.31;5074453;28;19915;-39
2022/09/06 04:55:18;;;;;;;;;;;;;;;28.85;58.22;98965.13;5075588;28;19920;-39
2022/09/06 04:57:43;;;;;;;;;;;;;;;28.75;60.66;98967.97;5074633;28;19928;-39
2022/09/06 05:00:09;;;;;;;;;;;;;;;28.52;59.53;98962.50;5075353;28;19916;-39
2022/09/06 05:02:34;;;;;;;;;;;;;;;28.50;61.30;98964.50;5075296;28;20003;-39
2022/09/06 05:04:59;;;;;;;;;;;;;;;28.80;60.41;98959.50;5074969;28;19989;-39
2022/09/06 05:07:25;;;;;;;;;;;;;;;28.76;60.54;98959.84;5074564;28;20008;-39
2022/09/06 05:09:50;;;;;;;;;;;;;;;28.76;60.80;98966.97;5075814;28;19916;-39
2022/09/06 05:12:15;;;;;;;;;;;;;;;28.78;61.50;98970.28;5075706;28;19977;-39
2022/09/06 05:14:40;;;;;;;;;;;;;;;28.84;61.14;98951.06;5074592;28;20342;-39
2022/09/06 05:17:06;;;;;;;;;;;;;;;28.77;61.56;98958.84;5073986;28;19920;-39
2022/09/06 05:19:31;;;;;;;;;;;;;;;28.78;60.60;98962.31;5075076;28;19916;-39
2022/09/06 05:21:56;;;;;;;;;;;;;;;28.65;62.51;98965.50;5075770;28;19920;-39
2022/09/06 05:24:21;;;;;;;;;;;;;;;28.71;62.08;98970.09;5074273;28;19946;-39
2022/09/06 05:26:47;;;;;;;;;;;;;;;28.51;63.67;98969.63;5074744;28;19927;-39
2022/09/06 05:29:12;;;;;;;;;;;;;;;28.57;63.87;98978.72;5075180;28;20317;-39
2022/09/06 05:31:37;;;;;;;;;;;;;;;28.60;63.94;98966.97;5074715;28;20007;-39
2022/09/06 05:34:02;;;;;;;;;;;;;;;28.63;63.65;98979.91;5074669;28;19951;-39
2022/09/06 05:36:28;;;;;;;;;;;;;;;28.70;63.94;98976.41;5073479;28;19924;-39
2022/09/06 05:38:54;;;;;;;;;;;;;;;28.83;62.81;98972.41;5075048;28;19915;-39
2022/09/06 05:41:19;;;;;;;;;;;;;;;28.78;62.89;98976.44;5073675;28;19916;-39
2022/09/06 05:43:45;;;;;;;;;;;;;;;28.75;63.77;98974.09;5074647;28;19938;-39
2022/09/06 05:46:10;;;;;;;;;;;;;;;28.86;63.91;98980.06;5074389;28;20507;-39
2022/09/06 05:48:35;;;;;;;;;;;;;;;28.95;63.17;98973.75;5074126;28;20003;-39
2022/09/06 05:51:01;;;;;;;;;;;;;;;28.93;62.89;98975.75;5074509;28;20026;-39
2022/09/06 05:53:31;;;;;;;;;;;;;;;28.84;60.65;98971.44;5074787;28;19944;-39
2022/09/06 05:55:57;;;;;;;;;;;;;;;28.90;61.85;98986.69;5074010;28;19924;-39
2022/09/06 05:58:22;;;;;;;;;;;;;;;28.72;65.97;98989.50;5073795;28;19977;-39
2022/09/06 06:00:47;;;;;;;;;;;;;;;28.58;63.41;98988.34;5074378;28;19916;-39
2022/09/06 06:03:12;;;;;;;;;;;;;;;28.69;60.81;98995.97;5075016;28;19927;-39
2022/09/06 06:05:37;;;;;;;;;;;;;;;28.18;61.34;98997.84;5074006;28;19927;-39
2022/09/06 06:08:03;;;;;;;;;;;;;;;28.85;62.72;98999.59;5073675;28;19930;-40
2022/09/06 06:10:28;;;;;;;;;;;;;;;28.97;62.40;99003.59;5073321;28;19937;-39
2022/09/06 06:12:55;;;;;;;;;;;;;;;28.78;60.19;98997.63;5074795;28;19916;-39
2022/09/06 06:15:21;;;;;;;;;;;;;;;27.80;60.88;99009.78;5074366;28;19916;-39
2022/09/06 06:17:46;;;;;;;;;;;;;;;28.62;61.83;98992.31;5072794;28;20817;-39
2022/09/06 06:20:11;;;;;;;;;;;;;;;28.98;61.05;98991.97;5074541;28;19942;-39
2022/09/06 06:22:36;;;;;;;;;;;;;;;28.95;60.27;98995.78;5073631;28;19982;-39
2022/09/06 06:25:02;;;;;;;;;;;;;;;28.85;57.61;98989.84;5073623;28;20270;-39
2022/09/06 06:27:27;;;;;;;;;;;;;;;28.61;58.36;98989.84;5073313;28;19938;-39
2022/09/06 06:29:52;;;;;;;;;;;;;;;29.00;59.96;98989.97;5055026;28;20044;-39
2022/09/06 06:32:17;;;;;;;;;;;;;;;28.24;58.18;98983.97;5073575;28;19934;-39
2022/09/06 06:34:43;;;;;;;;;;;;;;;28.68;58.44;98983.69;5068527;28;19917;-39
2022/09/06 06:37:08;;;;;;;;;;;;;;;28.70;58.32;98984.38;5069824;28;20014;-39
2022/09/06 06:39:33;;;;;;;;;;;;;;;28.36;60.02;98993.25;5073502;28;19922;-39
2022/09/06 06:41:58;;;;;;;;;;;;;;;27.50;62.79;98994.25;5073531;28;20373;-39
2022/09/06 06:44:26;;;;;;;;;;;;;;;27.05;65.67;99000.59;5073181;28;20105;-39
2022/09/06 06:46:51;;;;;;;;;;;;;;;27.40;65.54;98996.19;5073698;28;20381;-39
2022/09/06 06:49:16;;;;;;;;;;;;;;;27.80;63.71;98994.72;5073206;28;19912;-39
2022/09/06 06:51:41;;;;;;;;;;;;;;;27.82;61.81;98990.09;5074285;28;19916;-39
2022/09/06 06:54:07;;;;;;;;;;;;;;;27.90;62.16;98982.22;5072981;28;19927;-39
2022/09/06 06:56:33;;;;;;;;;;;;;;;27.62;64.22;98981.59;5073005;28;19927;-39
2022/09/06 06:58:59;;;;;;;;;;;;;;;26.73;68.33;98989.75;5073077;28;20971;-39
2022/09/06 07:01:25;;;;;;;;;;;;;;;26.85;69.36;98978.78;5072866;28;20029;-39
2022/09/06 07:03:50;;;;;;;;;;;;;;;27.37;67.56;98971.88;5073454;28;20630;-39
2022/09/06 07:06:16;;;;;;;;;;;;;;;27.80;68.38;98968.25;5072507;28;19916;-39
2022/09/06 07:08:41;;;;;;;;;;;;;;;27.51;72.12;98964.19;5073085;28;19916;-39
2022/09/06 07:11:07;;;;;;;;;;;;;;;28.59;66.24;98960.84;5073452;28;19916;-39
2022/09/06 07:13:33;;;;;;;;;;;;;;;28.85;64.48;98965.13;5072890;28;19939;-39
2022/09/06 07:16:18;;;;;;;;;;;;;;;29.29;60.78;98960.28;5072376;28;20015;-39
2022/09/06 07:18:44;;;;;;;;;;;;;;;29.45;58.42;98959.41;5072448;28;19977;-39
2022/09/06 07:21:13;;;;;;;;;;;;;;;28.75;60.75;98957.38;5073589;28;20213;-39
2022/09/06 07:23:38;;;;;;;;;;;;;;;27.97;67.98;98971.00;5073158;28;19985;-39
2022/09/06 07:26:04;;;;;;;;;;;;;;;28.35;67.42;98967.75;5071901;28;19916;-39
2022/09/06 07:28:30;;;;;;;;;;;;;;;30.49;57.75;98957.38;5074809;28;19916;-39
2022/09/06 07:30:55;;;;;;;;;;;;;;;30.32;56.55;98962.00;5079368;28;19916;-39
2022/09/06 07:33:20;;;;;;;;;;;;;;;31.25;53.21;98958.19;5079610;28;19962;-39
2022/09/06 07:35:55;;;;;;;;;;;;;;;31.75;53.07;98968.25;5078549;28;20331;-39
2022/09/06 07:38:21;;;;;;;;;;;;;;;30.58;54.39;98971.41;5079442;28;19916;-40
2022/09/06 07:40:51;;;;;;;;;;;;;;;30.80;55.58;98964.44;5079147;28;19916;-39
2022/09/06 07:43:16;;;;;;;;;;;;;;;30.44;55.84;98965.88;5079519;28;19972;-39
2022/09/06 07:45:42;;;;;;;;;;;;;;;30.43;61.15;98964.22;5079598;28;19924;-39
2022/09/06 07:48:07;;;;;;;;;;;;;;;30.77;55.36;98965.63;5079191;28;19951;-39
2022/09/06 07:50:32;;;;;;;;;;;;;;;30.09;60.77;98971.75;5079273;28;19916;-39
2022/09/06 07:53:07;;;;;;;;;;;;;;;29.38;63.31;98971.72;5078771;28;20384;-39
2022/09/06 07:55:32;;;;;;;;;;;;;;;29.11;65.28;98965.78;5078928;28;19922;-39
2022/09/06 07:57:57;;;;;;;;;;;;;;;29.58;60.35;98959.69;5078553;28;19920;-39
2022/09/06 08:00:22;;;;;;;;;;;;;;;30.62;57.41;98957.59;5079478;28;20029;-39
2022/09/06 08:02:48;;;;;;;;;;;;;;;31.84;51.36;98956.47;5079059;28;20024;-39
2022/09/06 08:05:13;;;;;;;;;;;;;;;30.01;56.95;98952.19;5079346;28;19916;-40
2022/09/06 08:07:38;;;;;;;;;;;;;;;29.50;60.32;98956.25;5077777;28;19920;-39
2022/09/06 08:10:03;;;;;;;;;;;;;;;31.67;53.93;98959.38;5079444;28;19916;-40
2022/09/06 08:12:29;;;;;;;;;;;;;;;32.68;47.84;98954.13;5061142;28;19920;-40
2022/09/06 08:14:54;;;;;;;;;;;;;;;32.42;49.74;98948.50;5078700;28;19912;-39
2022/09/06 08:17:20;;;;;;;;;;;;;;;32.60;46.91;98946.25;5078734;28;19920;-39
2022/09/06 08:19:45;;;;;;;;;;;;;;;32.55;45.25;98942.50;5078962;28;19931;-39
2022/09/06 08:22:10;;;;;;;;;;;;;;;30.90;50.22;98953.56;5079166;28;19931;-40
2022/09/06 08:24:36;;;;;;;;;;;;;;;31.55;49.57;98947.56;5079105;28;19951;-39
2022/09/06 08:27:02;;;;;;;;;;;;;;;32.50;46.75;98938.53;5078777;28;20023;-39
2022/09/06 08:29:27;;;;;;;;;;;;;;;32.11;46.99;98951.47;5079141;28;19959;-40
2022/09/06 08:31:53;;;;;;;;;;;;;;;31.65;47.56;98950.72;5078893;28;20010;-40
2022/09/06 08:34:18;;;;;;;;;;;;;;;33.12;44.45;98939.66;5079119;28;19927;-39
2022/09/06 08:36:44;;;;;;;;;;;;;;;32.23;44.91;98952.66;5078096;28;20720;-39
2022/09/06 08:39:09;;;;;;;;;;;;;;;33.84;40.80;98942.88;5078944;28;19912;-40
2022/09/06 08:41:47;;;;;;;;;;;;;;;32.65;40.79;98940.31;5074864;28;19928;-40
2022/09/06 08:44:26;;;;;;;;;;;;;;;32.72;40.06;98946.53;5075555;28;19923;-40
2022/09/06 08:46:56;;;;;;;;;;;;;;;33.94;38.39;98945.19;5075555;28;19916;-40
2022/09/06 08:49:21;;;;;;;;;;;;;;;35.16;35.44;98935.19;5075520;28;19923;-39
2022/09/06 08:52:05;;;;;;;;;;;;;;;35.15;35.05;98936.22;5058259;28;19916;-39
2022/09/06 08:54:40;;;;;;;;;;;;;;;33.18;37.03;98937.22;5075670;28;20106;-39
2022/09/06 08:57:24;;;;;;;;;;;;;;;33.12;37.71;98936.19;5055648;28;19920;-39
2022/09/06 08:59:49;;;;;;;;;;;;;;;34.43;35.77;98928.00;5075865;28;20076;-39
2022/09/06 09:02:15;;;;;;;;;;;;;;;35.12;35.10;98929.41;5057123;28;20337;-39
2022/09/06 09:04:42;;;;;;;;;;;;;;;35.58;34.71;98933.81;5056372;28;19916;-39
2022/09/06 09:07:27;;;;;;;;;;;;;;;36.50;32.55;98920.06;5075220;28;19912;-39
2022/09/06 09:09:53;;;;;;;;;;;;;;;37.24;32.58;98920.22;5074632;28;20003;-39
2022/09/06 09:12:19;;;;;;;;;;;;;;;36.17;33.29;98923.00;5074976;28;19920;-39
2022/09/06 09:14:44;;;;;;;;;;;;;;;35.94;33.19;98921.69;5056450;28;20756;-39
2022/09/06 09:17:11;;;;;;;;;;;;;;;36.69;32.70;98914.78;5056886;28;20002;-39
2022/09/06 09:19:37;;;;;;;;;;;;;;;35.85;33.26;98920.28;5055606;28;19920;-39
2022/09/06 09:22:02;;;;;;;;;;;;;;;37.39;32.09;98911.78;5055872;28;19916;-39
2022/09/06 09:24:30;;;;;;;;;;;;;;;37.82;31.61;98906.28;5072152;28;19950;-39
2022/09/06 09:27:02;;;;;;;;;;;;;;;35.76;33.19;98909.00;5074813;28;19916;-39
2022/09/06 09:29:27;;;;;;;;;;;;;;;35.94;33.56;98905.59;5056443;28;19916;-39
2022/09/06 09:31:53;;;;;;;;;;;;;;;35.88;34.09;98909.16;5075233;28;19923;-39
2022/09/06 09:34:34;;;;;;;;;;;;;;;37.15;31.97;98894.72;5074742;28;19916;-39
2022/09/06 09:37:12;;;;;;;;;;;;;;;38.25;30.92;98891.81;5074310;28;19920;-39
2022/09/06 09:39:38;;;;;;;;;;;;;;;37.72;30.59;98884.50;5056163;28;19979;-39
2022/09/06 09:42:03;;;;;;;;;;;;;;;37.01;31.00;98891.31;5047654;28;20019;-39
2022/09/06 09:44:29;;;;;;;;;;;;;;;38.51;30.85;98880.84;5072978;28;19919;-39
2022/09/06 09:46:54;;;;;;;;;;;;;;;38.49;31.23;98889.16;5073469;28;20707;-39
2022/09/06 09:49:26;;;;;;;;;;;;;;;36.13;32.74;98895.81;5074049;28;20852;-39
2022/09/06 09:52:10;;;;;;;;;;;;;;;36.19;33.72;98889.56;5074155;28;19916;-39
2022/09/06 09:54:36;;;;;;;;;;;;;;;37.72;32.62;98873.75;5074249;28;19924;-39
2022/09/06 09:57:06;;;;;;;;;;;;;;;36.13;32.25;98879.75;5072020;28;20332;-39
2022/09/06 09:59:51;;;;;;;;;;;;;;;36.21;33.77;98879.44;5074319;28;19916;-39
2022/09/06 10:02:22;;;;;;;;;;;;;;;38.02;30.73;98879.13;5073306;28;19959;-39
2022/09/06 10:04:48;;;;;;;;;;;;;;;38.25;30.31;98872.97;5074544;28;19923;-39
2022/09/06 10:07:15;;;;;;;;;;;;;;;39.18;30.09;98872.34;5073824;28;19916;-39
2022/09/06 10:09:45;;;;;;;;;;;;;;;37.51;30.86;98871.53;5073519;28;19916;-39
2022/09/06 10:12:18;;;;;;;;;;;;;;;36.33;32.37;98870.69;5056168;28;19949;-39
2022/09/06 10:14:44;;;;;;;;;;;;;;;38.34;29.91;98872.63;5072905;28;19949;-40
2022/09/06 10:17:20;;;;;;;;;;;;;;;38.49;28.44;98867.63;5073602;28;19920;-39
2022/09/06 10:19:46;;;;;;;;;;;;;;;38.92;29.25;98861.03;5073810;28;20365;-40
2022/09/06 10:22:11;;;;;;;;;;;;;;;38.45;29.58;98855.66;5055870;28;19930;-40
2022/09/06 10:24:42;;;;;;;;;;;;;;;39.40;28.58;98851.81;5073484;28;19924;-39
2022/09/06 10:27:07;;;;;;;;;;;;;;;38.78;29.28;98863.16;5073308;28;19916;-40
2022/09/06 10:29:38;;;;;;;;;;;;;;;38.31;28.88;98848.88;5055674;28;19927;-39
2022/09/06 10:32:12;;;;;;;;;;;;;;;38.70;29.70;98864.31;5073844;28;19919;-39
2022/09/06 10:34:56;;;;;;;;;;;;;;;37.98;29.48;98861.78;5072981;28;20601;-40
2022/09/06 10:37:27;;;;;;;;;;;;;;;38.87;29.68;98853.66;5072582;28;19920;-39
2022/09/06 10:40:07;;;;;;;;;;;;;;;40.03;28.13;98846.44;5055623;28;19927;-40
2022/09/06 10:42:41;;;;;;;;;;;;;;;40.62;26.98;98836.03;5073580;28;19923;-40
2022/09/06 10:45:06;;;;;;;;;;;;;;;39.73;27.98;98844.84;5072971;28;19920;-39
2022/09/06 10:47:52;;;;;;;;;;;;;;;38.38;28.04;98844.19;5072850;28;19920;-39
2022/09/06 10:50:18;;;;;;;;;;;;;;;39.39;28.60;98847.50;5030590;28;21394;-40
2022/09/06 10:52:43;;;;;;;;;;;;;;;37.91;29.51;98854.84;5072539;28;19926;-39
2022/09/06 10:55:09;;;;;;;;;;;;;;;39.44;28.58;98852.97;5072647;28;19920;-39
2022/09/06 10:57:41;;;;;;;;;;;;;;;39.45;27.11;98843.00;5052550;28;19962;-40
2022/09/06 11:00:11;;;;;;;;;;;;;;;39.97;28.02;98840.16;5072790;28;19916;-40
2022/09/06 11:02:55;;;;;;;;;;;;;;;40.33;27.61;98843.47;5055241;28;19920;-40
2022/09/06 11:05:31;;;;;;;;;;;;;;;40.66;28.01;98842.56;5072864;28;20442;-39
2022/09/06 11:08:00;;;;;;;;;;;;;;;39.92;28.17;98854.38;5072435;28;19962;-40
2022/09/06 11:10:26;;;;;;;;;;;;;;;39.97;28.99;98844.75;5072208;28;19927;-40
2022/09/06 11:12:54;;;;;;;;;;;;;;;39.44;27.07;98833.31;5072253;28;20601;-40
2022/09/06 11:15:20;;;;;;;;;;;;;;;38.45;29.73;98850.28;5055422;28;20384;-40
2022/09/06 11:17:48;;;;;;;;;;;;;;;40.28;27.24;98841.50;5054661;28;20293;-39
2022/09/06 11:20:33;;;;;;;;;;;;;;;41.21;27.05;98842.75;5073277;28;20583;-40
2022/09/06 11:23:08;;;;;;;;;;;;;;;40.05;26.46;98839.75;5072148;28;19973;-40
2022/09/06 11:25:53;;;;;;;;;;;;;;;40.65;28.11;98846.34;5073038;28;19995;-40
2022/09/06 11:28:22;;;;;;;;;;;;;;;39.50;27.73;98838.50;5072662;28;19982;-40
2022/09/06 11:30:47;;;;;;;;;;;;;;;40.28;28.28;98846.06;5054250;28;20038;-40
2022/09/06 11:33:22;;;;;;;;;;;;;;;42.11;25.95;98843.94;5072994;28;20648;-40
2022/09/06 11:35:48;;;;;;;;;;;;;;;41.34;27.96;98842.38;5054182;28;19922;-40
2022/09/06 11:38:13;;;;;;;;;;;;;;;40.66;26.88;98842.56;5055048;28;20607;-40
2022/09/06 11:40:42;;;;;;;;;;;;;;;40.96;27.48;98830.53;5073275;28;19920;-40
2022/09/06 11:43:08;;;;;;;;;;;;;;;40.86;26.45;98830.44;5055694;28;19939;-40
2022/09/06 11:45:47;;;;;;;;;;;;;;;38.62;27.79;98845.88;5071885;28;19973;-40
2022/09/06 11:48:34;;;;;;;;;;;;;;;38.26;28.69;98845.00;5072865;28;19916;-40
2022/09/06 11:51:05;;;;;;;;;;;;;;;39.47;27.58;98839.00;5072876;28;20355;-39
2022/09/06 11:53:31;;;;;;;;;;;;;;;40.07;28.45;98839.50;5054703;28;19977;-40
2022/09/06 11:55:59;;;;;;;;;;;;;;;38.20;28.78;98837.88;5042348;28;21233;-40
2022/09/06 11:58:25;;;;;;;;;;;;;;;40.86;28.29;98831.25;5065288;28;19955;-40
2022/09/06 12:01:09;;;;;;;;;;;;;;;42.42;27.24;98825.19;5070834;28;20037;-40
2022/09/06 12:03:57;;;;;;;;;;;;;;;42.90;26.87;98819.78;5070290;28;19928;-40
2022/09/06 12:06:26;;;;;;;;;;;;;;;41.61;26.65;98820.75;5058782;28;19939;-40
2022/09/06 12:08:51;;;;;;;;;;;;;;;40.66;28.31;98820.97;5050939;28;19920;-40
2022/09/06 12:11:20;;;;;;;;;;;;;;;42.25;27.07;98814.53;5053342;28;20164;-40
2022/09/06 12:13:55;;;;;;;;;;;;;;;41.95;25.90;98815.09;5071950;28;19926;-40
2022/09/06 12:16:21;;;;;;;;;;;;;;;38.21;28.60;98820.69;5072705;28;19920;-40
2022/09/06 12:18:46;;;;;;;;;;;;;;;39.07;30.22;98823.69;5076292;28;20838;-40
2022/09/06 12:21:30;;;;;;;;;;;;;;;39.17;28.11;98830.31;5075245;28;20753;-40
2022/09/06 12:23:55;;;;;;;;;;;;;;;38.87;28.32;98821.38;5076386;28;20058;-40
2022/09/06 12:26:39;;;;;;;;;;;;;;;41.33;26.86;98814.53;5075257;28;20002;-40
2022/09/06 12:29:08;;;;;;;;;;;;;;;40.61;27.49;98818.19;5076455;28;19948;-40
2022/09/06 12:31:40;;;;;;;;;;;;;;;39.44;29.11;98815.25;5075894;28;19919;-40
2022/09/06 12:34:25;;;;;;;;;;;;;;;38.51;30.24;98802.81;5056749;28;20384;-39
2022/09/06 12:37:00;;;;;;;;;;;;;;;40.54;27.75;98802.19;5074574;28;19927;-40
2022/09/06 12:39:25;;;;;;;;;;;;;;;40.02;28.04;98789.00;5057760;28;19965;-40
2022/09/06 12:41:53;;;;;;;;;;;;;;;38.92;29.57;98801.78;5076374;28;19924;-40
2022/09/06 12:44:21;;;;;;;;;;;;;;;39.18;28.93;98799.63;5056612;28;19952;-39
2022/09/06 12:46:47;;;;;;;;;;;;;;;40.29;28.94;98799.16;5053097;28;19995;-39
2022/09/06 12:49:13;;;;;;;;;;;;;;;41.89;27.89;98787.19;5055787;28;19994;-40
2022/09/06 12:51:39;;;;;;;;;;;;;;;41.89;25.66;98789.88;5056784;28;19954;-41